Time;durP1;ratioP1;P1;durP2;ratioP2;P2;SDS_P1;SDS_P2;PMS_P1;PMS_P2;Temp;Humidity;BMP_temperature;BMP_pressure;BME280_temperature;BME280_humidity;BME280_pressure;Samples;Min_cycle;Max_cycle;Signal;HPM_P1;HPM_P2
2023/09/20 00:01:12;;;;;;;15.90;11.10;;;;;;;13.40;70.96;100187.02;109303;1273;23714;-81
2023/09/20 00:03:57;;;;;;;11.60;10.40;;;;;;;13.47;70.94;100196.46;109669;1270;21983;-80
2023/09/20 00:06:57;;;;;;;;;;;;;;;13.42;70.85;100198.77;109723;1270;23733;-79
2023/09/20 00:09:48;;;;;;;16.70;11.30;;;;;;;13.27;71.06;100197.45;110016;1263;22016;-79
2023/09/20 00:12:44;;;;;;;14.70;11.20;;;;;;;13.23;71.24;100200.45;110417;1258;22455;-79
2023/09/20 00:15:21;;;;;;;14.50;12.00;;;;;;;13.15;71.25;100192.48;110921;1257;22467;-80
2023/09/20 00:18:04;;;;;;;14.10;12.70;;;;;;;13.18;71.42;100190.93;110917;1257;21966;-81
2023/09/20 00:21:06;;;;;;;;;;;;;;;;;;;;;
2023/09/20 00:24:13;;;;;;;18.80;13.10;;;;;;;13.27;71.49;100206.20;111236;1257;22454;-82
2023/09/20 00:27:21;;;;;;;12.00;10.80;;;;;;;13.25;71.53;100210.45;111039;1247;23020;-81
2023/09/20 00:30:02;;;;;;;11.90;10.80;;;;;;;13.27;71.55;100212.13;111163;1257;21960;-81
2023/09/20 00:32:50;;;;;;;12.90;11.70;;;;;;;13.26;71.33;100213.59;111046;1257;21971;-79
2023/09/20 00:35:30;;;;;;;13.00;11.60;;;;;;;13.23;71.32;100213.73;110439;1262;21956;-80
2023/09/20 00:38:09;;;;;;;13.90;12.00;;;;;;;13.21;71.37;100209.64;110786;1262;21960;-80
2023/09/20 00:40:47;;;;;;;13.50;11.00;;;;;;;13.22;71.64;100207.13;110481;1262;21980;-80
2023/09/20 00:43:28;;;;;;;12.30;11.10;;;;;;;13.24;71.62;100203.52;110500;1262;22031;-79
2023/09/20 00:46:12;;;;;;;15.80;14.10;;;;;;;13.24;71.49;100203.36;110456;1262;23032;-77
2023/09/20 00:49:03;;;;;;;;;;;;;;;;;;;;;
2023/09/20 00:51:54;;;;;;;20.30;18.50;;;;;;;13.21;71.60;100206.14;109760;1268;22002;-79
2023/09/20 00:54:54;;;;;;;23.20;21.00;;;;;;;13.20;71.53;100210.06;110001;1263;22435;-81
2023/09/20 00:57:41;;;;;;;22.20;20.20;;;;;;;13.16;71.45;100212.02;110100;1261;23668;-81
2023/09/20 01:00:32;;;;;;;21.30;19.30;;;;;;;13.11;71.39;100208.91;109447;1272;23223;-81
2023/09/20 01:03:19;;;;;;;20.60;16.60;;;;;;;13.06;71.40;100208.64;109475;1272;24315;-81
2023/09/20 01:05:57;;;;;;;14.70;13.30;;;;;;;13.01;71.29;100209.77;109507;1272;23170;-82
2023/09/20 01:08:35;;;;;;;15.00;12.90;;;;;;;12.93;71.40;100210.19;109632;1272;22387;-81
2023/09/20 01:11:14;;;;;;;13.90;12.60;;;;;;;12.85;71.64;100210.05;109129;1277;22784;-82
2023/09/20 01:13:49;;;;;;;15.40;13.50;;;;;;;12.81;71.91;100210.20;109005;1277;21972;-82
2023/09/20 01:16:25;;;;;;;20.00;18.40;;;;;;;12.79;71.95;100211.18;109068;1276;22059;-81
2023/09/20 01:18:58;;;;;;;24.80;22.50;;;;;;;12.78;72.05;100216.48;109324;1272;24192;-82
2023/09/20 01:21:56;;;;;;;25.70;23.40;;;;;;;12.75;71.99;100217.52;109213;1270;22755;-81
2023/09/20 01:24:41;;;;;;;28.70;25.60;;;;;;;12.67;72.13;100201.85;109007;1274;21998;-82
2023/09/20 01:27:10;;;;;;;27.30;25.00;;;;;;;12.67;72.28;100212.11;109040;1276;22013;-82
2023/09/20 01:29:51;;;;;;;24.60;22.20;;;;;;;12.66;72.46;100208.52;110151;1263;22403;-82
2023/09/20 01:32:35;;;;;;;26.40;23.90;;;;;;;12.67;72.45;100208.48;110485;1263;21968;-81
2023/09/20 01:35:11;;;;;;;24.80;22.30;;;;;;;12.68;72.53;100208.23;109463;1271;23733;-81
2023/09/20 01:37:45;;;;;;;27.30;24.90;;;;;;;12.71;72.49;100208.10;109518;1271;22018;-82
2023/09/20 01:40:23;;;;;;;31.50;28.80;;;;;;;12.72;72.51;100208.73;109500;1270;21996;-81
2023/09/20 01:42:58;;;;;;;35.20;32.10;;;;;;;12.69;72.32;100212.03;109880;1265;21973;-81
2023/09/20 01:45:44;;;;;;;33.90;30.70;;;;;;;12.63;72.46;100210.57;110205;1265;24195;-81
2023/09/20 01:48:15;;;;;;;33.20;29.90;;;;;;;12.60;72.47;100211.60;110021;1265;21967;-81
2023/09/20 01:50:50;;;;;;;28.70;25.70;;;;;;;12.60;72.59;100212.13;110458;1265;21996;-80
2023/09/20 01:53:43;;;;;;;26.20;23.60;;;;;;;12.60;72.82;100207.93;110575;1258;23723;-83
2023/09/20 01:56:25;;;;;;;24.80;22.40;;;;;;;12.62;72.82;100208.90;110288;1263;23642;-81
2023/09/20 01:59:11;;;;;;;25.00;22.70;;;;;;;12.63;72.78;100211.79;110511;1263;23763;-82
2023/09/20 02:01:51;;;;;;;25.90;23.70;;;;;;;12.63;72.67;100210.79;110619;1263;21968;-82
2023/09/20 02:04:32;;;;;;;27.30;24.90;;;;;;;12.58;72.53;100211.36;110515;1263;23602;-82
2023/09/20 02:07:11;;;;;;;27.40;24.60;;;;;;;12.52;72.64;100212.17;110585;1263;21972;-80
2023/09/20 02:09:47;;;;;;;24.60;22.20;;;;;;;12.43;72.74;100200.91;110353;1263;22060;-82
2023/09/20 02:12:43;;;;;;;22.70;20.60;;;;;;;12.43;72.87;100212.08;110570;1256;23641;-81
2023/09/20 02:16:01;;;;;;;23.70;21.30;;;;;;;12.41;73.05;100214.78;110808;1258;22451;-82
2023/09/20 02:18:48;;;;;;;22.70;20.50;;;;;;;12.39;73.33;100213.65;111133;1258;22021;-82
2023/09/20 02:21:41;;;;;;;21.10;19.10;;;;;;;12.39;73.26;100212.45;110848;1257;21947;-82
2023/09/20 02:24:22;;;;;;;20.20;18.40;;;;;;;12.39;73.20;100212.24;111047;1257;22150;-82
2023/09/20 02:27:08;;;;;;;15.70;14.30;;;;;;;12.38;73.26;100208.98;110920;1257;21982;-81
2023/09/20 02:30:04;;;;;;;;;;;;;;;;;;;;;
2023/09/20 02:32:35;;;;;;;18.20;13.10;;;;;;;12.37;73.31;100206.77;110187;1266;22050;-80
2023/09/20 02:35:16;;;;;;;14.90;13.10;;;;;;;12.39;73.38;100208.42;109964;1266;21971;-81
2023/09/20 02:38:07;;;;;;;;;;;;;;;;;;;;;
2023/09/20 02:40:59;;;;;;;12.90;11.10;;;;;;;12.41;73.26;100210.61;110049;1266;21967;-79
2023/09/20 02:43:42;;;;;;;;;;;;;;;12.40;73.32;100211.52;109922;1266;22552;-79
2023/09/20 02:46:33;;;;;;;12.30;11.10;;;;;;;12.30;73.55;100206.04;109202;1273;22660;-80
2023/09/20 02:49:34;;;;;;;14.10;10.70;;;;;;;12.32;73.45;100201.95;109899;1268;21996;-81
2023/09/20 02:52:06;;;;;;;13.70;12.30;;;;;;;12.39;73.35;100211.91;109773;1268;21961;-79
2023/09/20 02:54:35;;;;;;;14.70;11.60;;;;;;;12.39;73.09;100212.61;109643;1265;22463;-81
2023/09/20 02:57:23;;;;;;;13.50;10.80;;;;;;;12.38;73.02;100211.98;110036;1265;21993;-80
2023/09/20 02:59:58;;;;;;;15.20;10.40;;;;;;;12.38;73.13;100208.85;110190;1265;22946;-81
2023/09/20 03:02:38;;;;;;;11.90;9.00;;;;;;;12.39;73.18;100215.23;110346;1265;23032;-80
2023/09/20 03:05:46;;;;;;;12.20;10.70;;;;;;;12.41;73.28;100213.73;110878;1257;23594;-80
2023/09/20 03:08:25;;;;;;;15.40;11.70;;;;;;;12.42;73.25;100210.89;111024;1257;23384;-81
2023/09/20 03:11:03;;;;;;;13.80;12.40;;;;;;;12.43;73.00;100209.45;110943;1257;24291;-81
2023/09/20 03:13:49;;;;;;;14.70;11.90;;;;;;;12.42;72.92;100207.24;110868;1257;23717;-80
2023/09/20 03:16:25;;;;;;;18.00;11.60;;;;;;;12.42;72.88;100209.65;110870;1257;22493;-80
2023/09/20 03:19:14;;;;;;;11.80;10.00;;;;;;;12.41;72.87;100212.34;111148;1257;21963;-80
2023/09/20 03:21:46;;;;;;;15.00;10.60;;;;;;;12.43;72.91;100216.10;110888;1251;21951;-80
2023/09/20 03:24:21;;;;;;;12.70;11.50;;;;;;;12.43;72.85;100217.46;111045;1257;21954;-80
2023/09/20 03:26:52;;;;;;;12.00;10.70;;;;;;;12.44;72.92;100221.10;110915;1257;21977;-80
2023/09/20 03:29:29;;;;;;;12.60;11.00;;;;;;;12.42;72.85;100223.09;111020;1257;22046;-81
2023/09/20 03:32:09;;;;;;;14.90;10.50;;;;;;;12.39;72.78;100219.56;111136;1257;22689;-80
2023/09/20 03:34:54;;;;;;;14.10;10.70;;;;;;;12.33;72.67;100216.02;111104;1256;21958;-81
2023/09/20 03:37:43;;;;;;;11.20;10.10;;;;;;;12.27;72.70;100219.46;110955;1257;24359;-83
2023/09/20 03:40:18;;;;;;;14.70;9.90;;;;;;;12.22;72.79;100218.27;110497;1263;23039;-81
2023/09/20 03:43:07;;;;;;;10.90;9.70;;;;;;;12.21;72.90;100215.55;110343;1263;22037;-82
2023/09/20 03:45:54;;;;;;;12.10;10.30;;;;;;;12.21;72.94;100216.94;109991;1268;21982;-80
2023/09/20 03:48:33;;;;;;;11.20;9.70;;;;;;;12.22;72.92;100218.64;109824;1268;23673;-81
2023/09/20 03:51:40;;;;;;;11.70;10.40;;;;;;;12.22;72.96;100220.05;109422;1274;22010;-79
2023/09/20 03:54:40;;;;;;;14.30;9.20;;;;;;;12.22;72.96;100216.36;109264;1274;22512;-78
2023/09/20 03:57:10;;;;;;;16.70;11.30;;;;;;;12.22;73.03;100217.74;109308;1273;22011;-79
2023/09/20 04:00:25;;;;;;;16.90;11.00;;;;;;;12.21;73.01;100219.39;109885;1256;23074;-79
2023/09/20 04:03:05;;;;;;;16.60;10.70;;;;;;;12.21;72.99;100224.98;109137;1270;23046;-80
2023/09/20 04:05:42;;;;;;;11.40;10.00;;;;;;;12.21;72.94;100224.63;109547;1270;21981;-78
2023/09/20 04:08:27;;;;;;;;;;;;;;;;;;;;;
2023/09/20 04:11:12;;;;;;;10.50;9.20;;;;;;;12.14;72.67;100223.37;109356;1270;21996;-79
2023/09/20 04:14:08;;;;;;;;;;;;;;;;;;;;;
2023/09/20 04:16:52;;;;;;;14.70;11.30;;;;;;;12.08;72.82;100223.80;110035;1264;21991;-84
2023/09/20 04:19:32;;;;;;;13.60;10.50;;;;;;;12.09;72.85;100223.43;110341;1264;23695;-82
2023/09/20 04:22:04;;;;;;;;;;;;;;;12.08;72.70;100223.27;110890;1257;21991;-81
2023/09/20 04:24:41;;;;;;;11.90;9.50;;;;;;;11.96;73.08;100220.17;110555;1262;23027;-81
2023/09/20 04:27:20;;;;;;;16.40;10.00;;;;;;;11.95;72.98;100220.77;110520;1262;21966;-81
2023/09/20 04:30:13;;;;;;;12.90;10.10;;;;;;;11.95;73.02;100222.48;109778;1268;21972;-81
2023/09/20 04:32:57;;;;;;;14.20;9.80;;;;;;;11.93;72.91;100222.58;109638;1268;22757;-81
2023/09/20 04:35:43;;;;;;;17.00;9.70;;;;;;;11.92;72.99;100226.45;109543;1265;23038;-81
2023/09/20 04:38:35;;;;;;;9.10;7.90;;;;;;;11.93;73.25;100230.95;109838;1268;21974;-80
2023/09/20 04:41:13;;;;;;;9.40;7.90;;;;;;;11.94;73.18;100233.00;109730;1268;21991;-80
2023/09/20 04:44:00;;;;;;;11.30;8.40;;;;;;;11.93;73.18;100228.71;109589;1259;23160;-81
2023/09/20 04:46:42;;;;;;;10.60;9.10;;;;;;;11.99;73.23;100238.35;109100;1276;22025;-81
2023/09/20 04:49:41;;;;;;;14.10;8.70;;;;;;;12.02;73.13;100238.76;109592;1269;21999;-82
2023/09/20 04:52:30;;;;;;;14.70;9.10;;;;;;;12.04;73.24;100243.54;109406;1270;21983;-82
2023/09/20 04:55:13;;;;;;;14.20;8.00;;;;;;;12.06;73.04;100243.77;109417;1267;22785;-81
2023/09/20 04:57:46;;;;;;;11.20;7.80;;;;;;;12.10;72.96;100240.83;109757;1262;21986;-81
2023/09/20 05:00:37;;;;;;;13.60;8.00;;;;;;;12.08;72.98;100232.36;109593;1270;21985;-81
2023/09/20 05:03:19;;;;;;;11.50;8.10;;;;;;;12.14;72.99;100237.32;109610;1269;21992;-83
2023/09/20 05:06:01;;;;;;;12.40;8.50;;;;;;;12.17;72.93;100233.70;110303;1265;23042;-81
2023/09/20 05:08:46;;;;;;;11.30;7.70;;;;;;;12.14;72.97;100224.25;110024;1261;21971;-82
2023/09/20 05:11:45;;;;;;;8.30;7.50;;;;;;;12.23;72.89;100237.79;110649;1261;21980;-81
2023/09/20 05:14:21;;;;;;;12.00;7.80;;;;;;;12.25;72.87;100237.33;110564;1261;21981;-82
2023/09/20 05:17:21;;;;;;;10.60;7.80;;;;;;;12.29;72.83;100241.70;110640;1261;22562;-81
2023/09/20 05:20:03;;;;;;;8.10;7.20;;;;;;;12.34;72.88;100243.39;110537;1261;22015;-83
2023/09/20 05:22:44;;;;;;;10.00;7.70;;;;;;;12.36;72.85;100242.77;110098;1268;23743;-81
2023/09/20 05:25:14;;;;;;;13.10;8.80;;;;;;;12.39;72.76;100243.48;109937;1268;21970;-82
2023/09/20 05:28:10;;;;;;;14.60;8.20;;;;;;;12.43;72.59;100244.39;110210;1265;22405;-81
2023/09/20 05:30:49;;;;;;;10.40;8.00;;;;;;;12.43;72.60;100248.89;110047;1269;21976;-83
2023/09/20 05:33:30;;;;;;;8.80;6.90;;;;;;;12.46;72.69;100249.45;109591;1270;22017;-82
2023/09/20 05:36:14;;;;;;;9.70;7.10;;;;;;;12.50;72.60;100245.97;109674;1270;22452;-83
2023/09/20 05:39:22;;;;;;;11.60;7.20;;;;;;;12.54;72.58;100248.90;109179;1273;22743;-81
2023/09/20 05:41:58;;;;;;;9.10;7.50;;;;;;;12.59;72.71;100252.15;109571;1271;22325;-83
2023/09/20 05:44:36;;;;;;;10.70;7.60;;;;;;;12.68;72.70;100251.90;109547;1271;21983;-81
2023/09/20 05:47:17;;;;;;;11.80;8.20;;;;;;;12.76;72.46;100255.17;109576;1271;22010;-81
2023/09/20 05:54:42;;;;;;;8.50;7.50;;;;;;;12.93;72.64;100265.88;109203;1277;24000;-82
2023/09/20 05:57:50;;;;;;;10.40;6.90;;;;;;;13.06;72.56;100264.18;109101;1277;23106;-80
2023/09/20 06:01:23;;;;;;;13.40;6.90;;;;;;;13.17;72.56;100261.71;109047;1277;24124;-83
2023/09/20 06:04:45;;;;;;;8.70;6.10;;;;;;;13.36;72.49;100262.58;108786;1282;21980;-82
2023/09/20 06:07:40;;;;;;;6.70;4.90;;;;;;;13.57;72.38;100262.55;108793;1282;23762;-81
2023/09/20 06:10:31;;;;;;;16.20;6.00;;;;;;;13.78;72.14;100270.00;108765;1282;21994;-83
2023/09/20 06:13:39;;;;;;;15.00;6.00;;;;;;;13.98;71.85;100271.23;108791;1279;23048;-81
2023/09/20 06:17:13;;;;;;;9.30;5.70;;;;;;;14.23;71.61;100271.66;109208;1272;24300;-81
2023/09/20 06:20:07;;;;;;;8.20;5.80;;;;;;;14.50;71.27;100269.81;108789;1281;23048;-81
2023/09/20 06:24:12;;;;;;;;;;;;;;;;;;;;;
2023/09/20 06:27:20;;;;;;;12.00;5.10;;;;;;;15.16;70.07;100262.09;109069;1278;21986;-84
2023/09/20 06:29:54;;;;;;;8.80;4.80;;;;;;;15.50;69.54;100268.52;108700;1279;23153;-82
2023/09/20 06:32:36;;;;;;;8.80;4.80;;;;;;;15.90;69.10;100272.42;109221;1275;23790;-81
2023/09/20 06:35:20;;;;;;;6.70;4.40;;;;;;;16.36;68.06;100277.51;109241;1274;22007;-81
2023/09/20 06:37:58;;;;;;;7.50;4.10;;;;;;;16.81;66.45;100283.07;109317;1274;22014;-83
2023/09/20 06:40:38;;;;;;;10.40;4.40;;;;;;;17.23;65.00;100288.30;109435;1275;23040;-83
2023/09/20 06:43:21;;;;;;;5.80;3.60;;;;;;;17.62;63.46;100285.14;109435;1275;23606;-83
2023/09/20 06:46:08;;;;;;;11.20;3.70;;;;;;;18.04;62.00;100283.63;109139;1274;23666;-86
2023/09/20 06:48:44;;;;;;;9.10;3.60;;;;;;;18.46;59.52;100281.20;109365;1272;21992;-82
2023/09/20 06:51:17;;;;;;;9.30;3.50;;;;;;;18.86;58.90;100282.92;110324;1261;21984;-81
2023/09/20 06:53:58;;;;;;;8.30;4.10;;;;;;;19.23;57.73;100282.29;109965;1267;24304;-83
2023/09/20 06:56:27;;;;;;;16.60;6.20;;;;;;;19.66;57.52;100284.02;109999;1262;22630;-83
2023/09/20 06:58:57;;;;;;;17.60;4.40;;;;;;;20.02;56.13;100281.18;110136;1266;21988;-83
2023/09/20 07:01:26;;;;;;;6.40;3.40;;;;;;;20.40;55.47;100283.54;109705;1270;21979;-85
2023/09/20 07:03:56;;;;;;;7.60;3.50;;;;;;;20.75;54.28;100288.50;109938;1268;23628;-82
2023/09/20 07:06:31;;;;;;;10.20;3.40;;;;;;;21.11;54.02;100285.54;110495;1266;23599;-83
2023/09/20 07:09:01;;;;;;;7.70;4.00;;;;;;;21.43;51.47;100287.54;109561;1271;23601;-84
2023/09/20 07:11:32;;;;;;;8.20;3.20;;;;;;;21.61;51.13;100283.02;109651;1265;21993;-83
2023/09/20 07:14:06;;;;;;;10.00;3.50;;;;;;;21.92;51.47;100285.51;110470;1265;22970;-86
2023/09/20 07:16:44;;;;;;;7.80;3.00;;;;;;;22.24;50.02;100287.36;110662;1265;21979;-86
2023/09/20 07:19:29;;;;;;;7.00;3.40;;;;;;;22.53;49.52;100286.60;110398;1261;22790;-84
2023/09/20 07:21:59;;;;;;;7.00;3.30;;;;;;;22.84;48.69;100285.04;111065;1261;23590;-85
2023/09/20 07:24:32;;;;;;;4.60;2.90;;;;;;;23.10;48.19;100281.98;110955;1261;21973;-84
2023/09/20 07:27:06;;;;;;;4.50;2.50;;;;;;;23.42;47.21;100281.95;110821;1255;22961;-84
2023/09/20 07:29:44;;;;;;;6.20;2.60;;;;;;;23.52;46.23;100287.82;111029;1261;21970;-84
2023/09/20 07:32:25;;;;;;;7.70;2.80;;;;;;;23.61;46.04;100285.76;108311;1261;3275585;-85
2023/09/20 07:34:59;;;;;;;4.00;2.20;;;;;;;23.82;45.05;100277.81;110990;1261;21979;-84
2023/09/20 07:37:32;;;;;;;7.00;2.50;;;;;;;24.06;44.99;100285.10;110106;1268;22275;-85
2023/09/20 07:40:09;;;;;;;6.10;2.90;;;;;;;24.28;43.92;100282.16;109989;1268;22018;-84
2023/09/20 07:42:40;;;;;;;7.40;2.30;;;;;;;24.40;43.33;100283.09;110007;1268;21976;-84
2023/09/20 07:45:13;;;;;;;5.50;2.60;;;;;;;24.57;43.35;100283.06;110097;1268;23036;-83
2023/09/20 07:47:54;;;;;;;6.30;3.20;;;;;;;24.79;42.61;100291.65;109891;1268;21985;-84
2023/09/20 07:50:25;;;;;;;9.70;2.90;;;;;;;24.99;42.12;100295.29;109659;1271;23254;-83
2023/09/20 07:52:57;;;;;;;5.70;2.50;;;;;;;25.14;40.92;100290.99;109727;1271;21984;-83
2023/09/20 07:55:34;;;;;;;7.40;2.10;;;;;;;25.17;40.73;100290.34;110050;1266;22021;-82
2023/09/20 07:58:06;;;;;;;10.40;2.60;;;;;;;25.34;41.10;100289.32;110287;1266;21995;-83
2023/09/20 08:00:49;;;;;;;6.20;2.20;;;;;;;25.52;40.07;100291.11;110282;1266;21971;-83
2023/09/20 08:03:20;;;;;;;6.70;2.60;;;;;;;25.67;40.46;100282.61;110820;1261;21972;-84
2023/09/20 08:05:56;;;;;;;10.00;2.40;;;;;;;25.99;40.17;100289.30;110821;1260;21964;-79
2023/09/20 08:08:50;;;;;;;7.70;2.10;;;;;;;26.32;39.33;100296.79;110202;1266;22005;-82
2023/09/20 08:11:27;;;;;;;5.70;1.80;;;;;;;26.34;38.60;100288.77;110273;1266;22036;-81
2023/09/20 08:14:40;;;;;;;5.20;1.80;;;;;;;26.36;37.80;100295.87;109799;1267;23737;-82
2023/09/20 08:20:26;;;;;;;4.50;2.20;;;;;;;26.33;38.22;100301.16;110207;1267;24321;-84
2023/09/20 09:01:01;;;;;;;3.90;2.00;;;;;;;26.99;36.71;100293.57;111247;1256;21961;-81
2023/09/20 09:03:33;;;;;;;4.40;1.90;;;;;;;27.10;36.75;100290.09;111004;1255;22030;-82
2023/09/20 09:06:13;;;;;;;2.90;1.80;;;;;;;27.22;36.38;100287.76;111245;1255;22974;-81
2023/09/20 09:08:45;;;;;;;3.00;1.70;;;;;;;27.26;36.37;100286.16;111230;1255;23033;-81
2023/09/20 09:11:29;;;;;;;5.60;1.70;;;;;;;27.35;36.45;100286.49;111239;1255;21961;-82
2023/09/20 09:14:05;;;;;;;6.70;2.10;;;;;;;27.41;36.21;100281.06;110991;1255;24375;-80
2023/09/20 09:16:39;;;;;;;4.90;1.50;;;;;;;27.46;36.29;100281.00;110704;1261;22075;-81
2023/09/20 09:19:11;;;;;;;5.10;1.70;;;;;;;27.42;35.79;100283.41;110732;1261;21961;-81
2023/09/20 09:21:48;;;;;;;5.10;1.60;;;;;;;27.41;35.73;100279.96;110340;1267;23602;-82
2023/09/20 09:24:42;;;;;;;9.80;2.10;;;;;;;27.47;36.02;100275.35;110361;1267;21939;-81
2023/09/20 09:27:12;;;;;;;4.10;1.90;;;;;;;27.53;35.73;100275.08;110095;1267;21990;-81
2023/09/20 09:29:50;;;;;;;4.40;1.70;;;;;;;27.50;35.54;100271.57;109705;1271;21980;-81
2023/09/20 09:32:24;;;;;;;6.70;2.00;;;;;;;27.45;35.32;100263.21;109590;1271;23035;-80
2023/09/20 09:35:09;;;;;;;;;;;;;;;27.51;35.64;100261.33;109930;1266;21980;-80
2023/09/20 09:38:05;;;;;;;7.70;1.70;;;;;;;27.42;35.14;100258.05;110061;1266;22297;-83
2023/09/20 09:40:56;;;;;;;5.30;1.40;;;;;;;27.36;35.48;100255.85;110629;1260;22017;-81
2023/09/20 09:43:30;;;;;;;4.10;1.50;;;;;;;27.45;35.75;100258.09;110059;1266;23073;-80
2023/09/20 09:46:44;;;;;;;2.60;1.60;;;;;;;27.46;35.13;100252.59;110057;1266;23693;-81
2023/09/20 09:49:18;;;;;;;3.90;1.70;;;;;;;27.53;35.46;100258.30;110819;1261;23696;-81
2023/09/20 09:52:10;;;;;;;4.20;1.50;;;;;;;27.75;35.53;100255.27;110691;1261;22028;-80
2023/09/20 09:54:45;;;;;;;3.30;1.40;;;;;;;27.90;34.94;100255.61;110780;1261;22000;-79
2023/09/20 09:57:28;;;;;;;;;;;;;;;27.98;34.80;100254.61;110716;1261;21989;-81
2023/09/20 10:00:21;;;;;;;;;;;;;;;;;;;;;
2023/09/20 10:03:40;;;;;;;3.10;1.50;;;;;;;27.53;34.39;100261.28;111037;1255;21965;-82
2023/09/20 10:06:22;;;;;;;3.00;1.90;;;;;;;27.42;35.08;100266.79;110741;1263;22723;-82
2023/09/20 10:09:14;;;;;;;4.80;1.50;;;;;;;27.55;35.30;100265.36;110670;1263;22458;-81
2023/09/20 10:11:50;;;;;;;2.30;1.30;;;;;;;27.62;34.84;100254.32;110390;1262;22036;-80
2023/09/20 10:14:29;;;;;;;12.70;2.40;;;;;;;27.74;34.61;100255.48;110629;1262;24452;-81
2023/09/20 10:17:20;;;;;;;10.10;1.70;;;;;;;27.93;34.39;100259.35;109931;1268;23618;-81
2023/09/20 10:19:53;;;;;;;7.40;3.70;;;;;;;27.82;33.42;100259.52;109333;1275;23609;-80
2023/09/20 10:22:41;;;;;;;7.30;5.20;;;;;;;27.56;33.50;100258.59;109335;1274;23040;-80
2023/09/20 10:25:48;;;;;;;8.30;2.40;;;;;;;27.22;33.80;100257.34;109246;1275;22209;-82
2023/09/20 10:28:31;;;;;;;4.40;1.90;;;;;;;26.86;34.08;100263.55;109213;1271;21997;-82
2023/09/20 10:31:20;;;;;;;9.60;2.40;;;;;;;26.49;34.52;100266.42;109372;1274;21984;-83
2023/09/20 10:33:57;;;;;;;5.50;1.90;;;;;;;26.25;34.91;100262.20;109340;1274;23011;-81
2023/09/20 10:37:12;;;;;;;7.50;2.70;;;;;;;26.19;35.54;100261.45;109806;1269;21940;-80
2023/09/20 10:39:53;;;;;;;7.00;2.00;;;;;;;26.23;35.34;100260.99;109268;1274;21979;-81
2023/09/20 10:42:58;;;;;;;4.10;2.20;;;;;;;26.35;35.63;100258.98;109624;1269;22018;-81
2023/09/20 10:45:40;;;;;;;5.10;1.80;;;;;;;26.55;35.39;100258.48;110491;1262;23692;-79
2023/09/20 10:49:01;;;;;;;6.60;3.40;;;;;;;26.61;35.01;100253.40;110516;1262;21981;-82
2023/09/20 10:51:51;;;;;;;5.80;1.50;;;;;;;26.67;35.01;100249.76;109681;1270;22774;-82
2023/09/20 10:54:39;;;;;;;4.30;2.00;;;;;;;26.70;34.74;100248.34;109280;1273;21983;-81
2023/09/20 10:57:32;;;;;;;;;;;;;;;;;;;;;
2023/09/20 11:00:12;;;;;;;5.60;2.40;;;;;;;26.64;34.65;100246.42;109632;1270;21985;-82
2023/09/20 11:03:32;;;;;;;5.40;1.50;;;;;;;26.50;34.54;100246.11;109300;1275;23046;-81
2023/09/20 11:06:13;;;;;;;6.30;1.90;;;;;;;26.29;34.71;100248.44;109276;1275;21988;-81
2023/09/20 11:08:59;;;;;;;4.80;1.70;;;;;;;26.14;35.36;100242.67;109311;1273;22010;-83
2023/09/20 11:12:11;;;;;;;5.10;2.60;;;;;;;26.00;35.59;100241.41;109320;1273;22927;-81
2023/09/20 11:14:44;;;;;;;;;;;;;;;25.94;36.22;100238.56;109470;1273;21973;-81
2023/09/20 11:18:01;;;;;;;5.40;2.20;;;;;;;25.76;36.42;100227.73;109131;1275;21981;-81
2023/09/20 11:20:51;;;;;;;4.50;2.60;;;;;;;25.71;36.59;100230.21;109478;1271;21983;-81
2023/09/20 11:23:38;;;;;;;2.30;1.60;;;;;;;25.72;37.10;100228.48;109640;1259;21976;-80
2023/09/20 11:26:18;;;;;;;4.60;2.00;;;;;;;25.68;36.93;100226.22;109592;1271;22002;-80
2023/09/20 11:28:48;;;;;;;8.20;2.10;;;;;;;25.66;36.94;100227.66;109944;1262;21993;-81
2023/09/20 11:31:35;;;;;;;5.20;2.20;;;;;;;25.62;36.86;100226.25;110816;1260;23037;-81
2023/09/20 11:34:11;;;;;;;2.50;1.80;;;;;;;25.54;36.46;100229.05;109833;1268;23075;-82
2023/09/20 11:36:53;;;;;;;6.10;2.50;;;;;;;25.36;36.47;100225.77;110699;1262;21985;-83
2023/09/20 11:39:44;;;;;;;3.40;1.60;;;;;;;25.25;36.99;100226.73;110448;1262;23047;-82
2023/09/20 11:42:47;;;;;;;;;;;;;;;;;;;;;
2023/09/20 11:46:15;;;;;;;5.40;1.90;;;;;;;25.15;37.61;100213.84;110747;1262;22015;-81
2023/09/20 11:49:27;;;;;;;7.40;2.00;;;;;;;25.12;37.83;100208.88;110411;1262;22128;-82
2023/09/20 11:52:13;;;;;;;3.80;1.60;;;;;;;25.16;37.64;100213.88;110236;1262;21967;-84
2023/09/20 11:54:48;;;;;;;5.40;1.90;;;;;;;25.17;37.69;100208.83;110374;1262;22970;-82
2023/09/20 11:57:47;;;;;;;5.40;2.20;;;;;;;25.16;37.91;100214.08;110758;1262;22038;-81
2023/09/20 12:00:24;;;;;;;6.20;2.30;;;;;;;25.15;37.86;100208.98;110768;1262;21985;-83
2023/09/20 12:03:18;;;;;;;3.50;2.00;;;;;;;25.12;37.89;100202.73;110936;1262;21962;-86
2023/09/20 12:05:51;;;;;;;4.70;1.70;;;;;;;25.07;37.84;100202.90;110965;1262;22118;-85
2023/09/20 12:08:21;;;;;;;7.10;1.80;;;;;;;25.02;38.11;100198.16;110158;1268;22042;-84
2023/09/20 12:10:51;;;;;;;7.60;2.00;;;;;;;25.05;38.24;100199.09;110956;1262;22245;-86
2023/09/20 12:13:24;;;;;;;4.40;2.10;;;;;;;25.12;38.22;100203.73;110763;1262;23734;-86
2023/09/20 12:16:27;;;;;;;5.90;2.10;;;;;;;25.14;38.18;100198.25;110732;1262;22034;-85
2023/09/20 12:19:04;;;;;;;6.80;2.40;;;;;;;25.11;38.27;100195.83;109772;1271;23631;-84
2023/09/20 12:21:36;;;;;;;3.30;2.10;;;;;;;25.14;38.20;100190.50;109840;1271;22427;-85
2023/09/20 12:24:13;;;;;;;6.10;2.10;;;;;;;25.12;37.96;100181.51;109908;1271;22204;-86
2023/09/20 12:26:48;;;;;;;3.40;2.10;;;;;;;25.08;38.29;100179.79;110011;1265;23161;-85
2023/09/20 12:29:20;;;;;;;4.30;1.70;;;;;;;25.04;38.33;100176.42;110566;1265;22457;-85
2023/09/20 12:31:55;;;;;;;4.50;2.20;;;;;;;25.02;38.37;100178.27;110390;1265;22010;-84
2023/09/20 12:34:27;;;;;;;5.60;1.90;;;;;;;24.97;38.49;100172.13;109548;1272;22023;-85
2023/09/20 12:37:31;;;;;;;4.40;2.60;;;;;;;24.99;38.37;100174.88;109462;1272;23038;-84
2023/09/20 12:41:04;;;;;;;2.70;1.80;;;;;;;24.93;38.52;100171.69;108767;1282;22035;-84
2023/09/20 12:44:23;;;;;;;9.90;1.80;;;;;;;24.85;38.53;100163.44;108117;1291;22867;-86
2023/09/20 12:47:56;;;;;;;5.60;2.10;;;;;;;24.89;38.58;100167.46;107677;1297;22036;-84
2023/09/20 12:51:53;;;;;;;3.20;1.80;;;;;;;24.87;38.44;100167.41;107714;1297;22052;-85
2023/09/20 12:54:59;;;;;;;4.70;2.00;;;;;;;24.80;38.46;100158.78;107262;1299;22275;-85
2023/09/20 12:57:29;;;;;;;4.30;1.70;;;;;;;24.80;38.49;100154.55;107699;1289;21996;-84
2023/09/20 13:00:16;;;;;;;4.10;2.30;;;;;;;24.81;38.36;100154.83;108538;1287;22006;-80
2023/09/20 13:03:08;;;;;;;6.90;1.90;;;;;;;24.78;38.53;100146.52;108669;1287;23037;-83
2023/09/20 13:05:39;;;;;;;7.70;2.60;;;;;;;24.76;38.48;100143.16;108801;1284;23100;-83
2023/09/20 13:08:38;;;;;;;4.60;2.00;;;;;;;24.75;38.60;100140.92;109002;1277;21988;-86
2023/09/20 13:11:26;;;;;;;;;;;;;;;24.79;38.79;100141.99;109383;1277;22135;-84
2023/09/20 13:14:48;;;;;;;8.90;2.30;;;;;;;24.73;38.96;100137.94;109002;1281;22013;-85
2023/09/20 13:17:35;;;;;;;5.30;1.90;;;;;;;24.78;38.76;100132.64;108597;1286;22440;-84
2023/09/20 13:20:27;;;;;;;4.30;2.40;;;;;;;24.82;38.65;100131.38;108582;1286;22205;-84
2023/09/20 13:23:28;;;;;;;;;;;;;;;;;;;;;
2023/09/20 13:26:06;;;;;;;2.80;1.90;;;;;;;24.79;38.33;100135.20;108969;1278;21988;-85
2023/09/20 13:28:43;;;;;;;2.90;2.10;;;;;;;24.82;38.41;100131.50;108935;1281;22867;-85
2023/09/20 13:31:26;;;;;;;;;;;;;;;;;;;;;
2023/09/20 13:34:02;;;;;;;5.20;2.20;;;;;;;24.81;38.67;100133.73;109559;1275;22617;-84
2023/09/20 13:36:37;;;;;;;3.50;1.90;;;;;;;24.81;38.54;100135.70;109553;1274;21990;-86
2023/09/20 13:39:09;;;;;;;4.10;1.70;;;;;;;24.79;38.44;100131.42;109469;1277;22459;-82
2023/09/20 13:41:53;;;;;;;3.90;2.20;;;;;;;24.78;38.40;100129.57;109342;1277;22702;-84